sensor_id;sensor_type;location;lat;lon;timestamp;P1;durP1;ratioP1;P2;durP2;ratioP2
20557;SDS011;10437;48.156;11.530;2023-08-17T00:01:19;14.55;;;6.20;;
20557;SDS011;10437;48.156;11.530;2023-08-17T00:03:47;6.95;;;5.38;;
20557;SDS011;10437;48.156;11.530;2023-08-17T00:06:14;8.85;;;5.45;;
20557;SDS011;10437;48.156;11.530;2023-08-17T00:08:42;8.32;;;6.05;;
20557;SDS011;10437;48.156;11.530;2023-08-17T00:11:09;8.32;;;5.72;;
20557;SDS011;10437;48.156;11.530;2023-08-17T00:13:36;7.65;;;5.50;;
20557;SDS011;10437;48.156;11.530;2023-08-17T00:16:03;7.95;;;5.55;;
20557;SDS011;10437;48.156;11.530;2023-08-17T00:18:30;10.50;;;5.70;;
20557;SDS011;10437;48.156;11.530;2023-08-17T00:20:59;13.30;;;5.50;;
20557;SDS011;10437;48.156;11.530;2023-08-17T00:23:26;7.82;;;5.72;;
20557;SDS011;10437;48.156;11.530;2023-08-17T00:25:53;9.05;;;5.95;;
20557;SDS011;10437;48.156;11.530;2023-08-17T00:28:20;7.97;;;5.78;;
20557;SDS011;10437;48.156;11.530;2023-08-17T00:30:47;8.68;;;5.75;;
20557;SDS011;10437;48.156;11.530;2023-08-17T00:33:14;8.23;;;5.68;;
20557;SDS011;10437;48.156;11.530;2023-08-17T00:35:41;10.13;;;5.70;;
20557;SDS011;10437;48.156;11.530;2023-08-17T00:38:10;8.93;;;5.57;;
20557;SDS011;10437;48.156;11.530;2023-08-17T00:40:37;8.20;;;5.22;;
20557;SDS011;10437;48.156;11.530;2023-08-17T00:43:04;7.57;;;5.28;;
20557;SDS011;10437;48.156;11.530;2023-08-17T00:45:31;10.18;;;5.80;;
20557;SDS011;10437;48.156;11.530;2023-08-17T00:47:58;8.70;;;6.05;;
20557;SDS011;10437;48.156;11.530;2023-08-17T00:50:26;8.65;;;5.65;;
20557;SDS011;10437;48.156;11.530;2023-08-17T00:52:55;7.70;;;5.72;;
20557;SDS011;10437;48.156;11.530;2023-08-17T00:55:23;10.40;;;6.00;;
20557;SDS011;10437;48.156;11.530;2023-08-17T00:57:50;7.60;;;5.93;;
20557;SDS011;10437;48.156;11.530;2023-08-17T01:00:19;8.38;;;5.63;;
20557;SDS011;10437;48.156;11.530;2023-08-17T01:02:47;7.38;;;5.30;;
20557;SDS011;10437;48.156;11.530;2023-08-17T01:05:14;8.88;;;5.75;;
20557;SDS011;10437;48.156;11.530;2023-08-17T01:07:41;8.95;;;5.65;;
20557;SDS011;10437;48.156;11.530;2023-08-17T01:10:08;9.18;;;5.95;;
20557;SDS011;10437;48.156;11.530;2023-08-17T01:12:38;8.75;;;5.53;;
20557;SDS011;10437;48.156;11.530;2023-08-17T01:15:14;8.70;;;6.43;;
20557;SDS011;10437;48.156;11.530;2023-08-17T01:17:47;8.65;;;5.50;;
20557;SDS011;10437;48.156;11.530;2023-08-17T01:20:22;9.30;;;5.40;;
20557;SDS011;10437;48.156;11.530;2023-08-17T01:22:50;7.72;;;5.57;;
20557;SDS011;10437;48.156;11.530;2023-08-17T01:25:23;10.55;;;5.47;;
20557;SDS011;10437;48.156;11.530;2023-08-17T01:27:50;8.35;;;5.88;;
20557;SDS011;10437;48.156;11.530;2023-08-17T01:30:17;8.57;;;6.03;;
20557;SDS011;10437;48.156;11.530;2023-08-17T01:32:47;7.88;;;5.57;;
20557;SDS011;10437;48.156;11.530;2023-08-17T01:35:18;10.77;;;5.60;;
20557;SDS011;10437;48.156;11.530;2023-08-17T01:37:53;10.30;;;5.82;;
20557;SDS011;10437;48.156;11.530;2023-08-17T01:40:26;11.63;;;6.35;;
20557;SDS011;10437;48.156;11.530;2023-08-17T01:42:54;9.00;;;6.00;;
20557;SDS011;10437;48.156;11.530;2023-08-17T01:45:22;7.57;;;5.90;;
20557;SDS011;10437;48.156;11.530;2023-08-17T01:47:50;9.20;;;6.10;;
20557;SDS011;10437;48.156;11.530;2023-08-17T01:50:17;7.57;;;5.38;;
20557;SDS011;10437;48.156;11.530;2023-08-17T01:52:44;8.75;;;5.60;;
20557;SDS011;10437;48.156;11.530;2023-08-17T01:55:11;10.93;;;5.88;;
20557;SDS011;10437;48.156;11.530;2023-08-17T01:57:39;8.77;;;5.95;;
20557;SDS011;10437;48.156;11.530;2023-08-17T02:00:06;9.55;;;6.00;;
20557;SDS011;10437;48.156;11.530;2023-08-17T02:02:35;8.40;;;5.40;;
20557;SDS011;10437;48.156;11.530;2023-08-17T02:05:02;8.88;;;5.68;;
20557;SDS011;10437;48.156;11.530;2023-08-17T02:07:30;8.18;;;5.75;;
20557;SDS011;10437;48.156;11.530;2023-08-17T02:09:57;9.43;;;6.18;;
20557;SDS011;10437;48.156;11.530;2023-08-17T02:12:24;9.02;;;5.70;;
20557;SDS011;10437;48.156;11.530;2023-08-17T02:14:52;12.52;;;5.82;;
20557;SDS011;10437;48.156;11.530;2023-08-17T02:17:19;9.85;;;5.97;;
20557;SDS011;10437;48.156;11.530;2023-08-17T02:19:46;8.23;;;5.90;;
20557;SDS011;10437;48.156;11.530;2023-08-17T02:22:13;9.35;;;5.82;;
20557;SDS011;10437;48.156;11.530;2023-08-17T02:24:40;10.38;;;6.60;;
20557;SDS011;10437;48.156;11.530;2023-08-17T02:27:08;9.45;;;6.22;;
20557;SDS011;10437;48.156;11.530;2023-08-17T02:29:35;7.65;;;5.40;;
20557;SDS011;10437;48.156;11.530;2023-08-17T02:32:04;8.77;;;6.00;;
20557;SDS011;10437;48.156;11.530;2023-08-17T02:34:31;7.68;;;5.95;;
20557;SDS011;10437;48.156;11.530;2023-08-17T02:36:58;7.78;;;6.03;;
20557;SDS011;10437;48.156;11.530;2023-08-17T02:39:25;9.55;;;6.28;;
20557;SDS011;10437;48.156;11.530;2023-08-17T02:41:52;10.23;;;6.13;;
20557;SDS011;10437;48.156;11.530;2023-08-17T02:44:19;10.57;;;6.55;;
20557;SDS011;10437;48.156;11.530;2023-08-17T02:46:46;9.65;;;6.88;;
20557;SDS011;10437;48.156;11.530;2023-08-17T02:49:14;8.23;;;6.47;;
20557;SDS011;10437;48.156;11.530;2023-08-17T02:51:41;9.23;;;6.90;;
20557;SDS011;10437;48.156;11.530;2023-08-17T02:54:08;10.13;;;6.38;;
20557;SDS011;10437;48.156;11.530;2023-08-17T02:56:35;9.65;;;6.47;;
20557;SDS011;10437;48.156;11.530;2023-08-17T02:59:02;8.52;;;5.93;;
20557;SDS011;10437;48.156;11.530;2023-08-17T03:01:29;11.15;;;6.25;;
20557;SDS011;10437;48.156;11.530;2023-08-17T03:03:57;8.10;;;6.22;;
20557;SDS011;10437;48.156;11.530;2023-08-17T03:06:25;8.52;;;6.30;;
20557;SDS011;10437;48.156;11.530;2023-08-17T03:08:52;10.85;;;6.43;;
20557;SDS011;10437;48.156;11.530;2023-08-17T03:11:19;8.20;;;5.95;;
20557;SDS011;10437;48.156;11.530;2023-08-17T03:13:46;7.32;;;5.78;;
20557;SDS011;10437;48.156;11.530;2023-08-17T03:16:13;7.85;;;6.03;;
20557;SDS011;10437;48.156;11.530;2023-08-17T03:18:40;8.90;;;5.68;;
20557;SDS011;10437;48.156;11.530;2023-08-17T03:21:08;7.93;;;5.80;;
20557;SDS011;10437;48.156;11.530;2023-08-17T03:23:36;6.80;;;5.68;;
20557;SDS011;10437;48.156;11.530;2023-08-17T03:26:03;9.82;;;6.20;;
20557;SDS011;10437;48.156;11.530;2023-08-17T03:28:30;14.25;;;6.60;;
20557;SDS011;10437;48.156;11.530;2023-08-17T03:30:57;8.70;;;5.68;;
20557;SDS011;10437;48.156;11.530;2023-08-17T03:33:24;8.48;;;6.15;;
20557;SDS011;10437;48.156;11.530;2023-08-17T03:35:51;8.63;;;5.78;;
20557;SDS011;10437;48.156;11.530;2023-08-17T03:38:18;8.32;;;5.57;;
20557;SDS011;10437;48.156;11.530;2023-08-17T03:40:47;10.70;;;5.82;;
20557;SDS011;10437;48.156;11.530;2023-08-17T03:43:14;7.78;;;6.10;;
20557;SDS011;10437;48.156;11.530;2023-08-17T03:45:41;8.50;;;5.85;;
20557;SDS011;10437;48.156;11.530;2023-08-17T03:48:08;9.45;;;6.57;;
20557;SDS011;10437;48.156;11.530;2023-08-17T03:50:35;10.10;;;6.22;;
20557;SDS011;10437;48.156;11.530;2023-08-17T03:53:02;7.93;;;6.10;;
20557;SDS011;10437;48.156;11.530;2023-08-17T03:55:29;9.52;;;5.90;;
20557;SDS011;10437;48.156;11.530;2023-08-17T03:57:58;9.63;;;5.78;;
20557;SDS011;10437;48.156;11.530;2023-08-17T04:00:25;9.52;;;6.00;;
20557;SDS011;10437;48.156;11.530;2023-08-17T04:02:52;8.95;;;5.57;;
20557;SDS011;10437;48.156;11.530;2023-08-17T04:05:19;10.50;;;6.28;;
20557;SDS011;10437;48.156;11.530;2023-08-17T04:07:45;11.05;;;6.03;;
20557;SDS011;10437;48.156;11.530;2023-08-17T04:10:13;8.65;;;6.18;;
20557;SDS011;10437;48.156;11.530;2023-08-17T04:12:40;17.90;;;6.82;;
20557;SDS011;10437;48.156;11.530;2023-08-17T04:15:09;11.63;;;6.63;;
20557;SDS011;10437;48.156;11.530;2023-08-17T04:17:35;10.77;;;6.30;;
20557;SDS011;10437;48.156;11.530;2023-08-17T04:20:03;9.32;;;6.70;;
20557;SDS011;10437;48.156;11.530;2023-08-17T04:22:30;10.02;;;6.70;;
20557;SDS011;10437;48.156;11.530;2023-08-17T04:24:57;10.73;;;6.63;;
20557;SDS011;10437;48.156;11.530;2023-08-17T04:27:24;8.73;;;5.88;;
20557;SDS011;10437;48.156;11.530;2023-08-17T04:29:51;10.25;;;5.82;;
20557;SDS011;10437;48.156;11.530;2023-08-17T04:32:19;10.70;;;5.63;;
20557;SDS011;10437;48.156;11.530;2023-08-17T04:34:46;8.50;;;6.03;;
20557;SDS011;10437;48.156;11.530;2023-08-17T04:37:13;10.52;;;6.40;;
20557;SDS011;10437;48.156;11.530;2023-08-17T04:39:40;7.47;;;6.18;;
20557;SDS011;10437;48.156;11.530;2023-08-17T04:42:08;11.55;;;6.15;;
20557;SDS011;10437;48.156;11.530;2023-08-17T04:44:36;11.73;;;6.20;;
20557;SDS011;10437;48.156;11.530;2023-08-17T04:47:03;9.73;;;6.07;;
20557;SDS011;10437;48.156;11.530;2023-08-17T04:49:31;12.35;;;6.53;;
20557;SDS011;10437;48.156;11.530;2023-08-17T04:51:58;9.48;;;6.43;;
20557;SDS011;10437;48.156;11.530;2023-08-17T04:54:25;10.48;;;6.93;;
20557;SDS011;10437;48.156;11.530;2023-08-17T04:56:52;11.40;;;6.40;;
20557;SDS011;10437;48.156;11.530;2023-08-17T04:59:19;10.93;;;6.53;;
20557;SDS011;10437;48.156;11.530;2023-08-17T05:01:46;12.27;;;7.18;;
20557;SDS011;10437;48.156;11.530;2023-08-17T05:04:13;9.02;;;6.28;;
20557;SDS011;10437;48.156;11.530;2023-08-17T05:06:41;12.65;;;6.28;;
20557;SDS011;10437;48.156;11.530;2023-08-17T05:09:08;10.18;;;6.90;;
20557;SDS011;10437;48.156;11.530;2023-08-17T05:11:35;8.27;;;6.32;;
20557;SDS011;10437;48.156;11.530;2023-08-17T05:14:02;12.45;;;6.63;;
20557;SDS011;10437;48.156;11.530;2023-08-17T05:16:29;10.23;;;6.60;;
20557;SDS011;10437;48.156;11.530;2023-08-17T05:18:56;10.25;;;6.70;;
20557;SDS011;10437;48.156;11.530;2023-08-17T05:21:24;12.73;;;6.93;;
20557;SDS011;10437;48.156;11.530;2023-08-17T05:23:53;9.23;;;6.30;;
20557;SDS011;10437;48.156;11.530;2023-08-17T05:26:19;10.63;;;6.65;;
20557;SDS011;10437;48.156;11.530;2023-08-17T05:28:46;8.25;;;6.53;;
20557;SDS011;10437;48.156;11.530;2023-08-17T05:31:14;11.35;;;7.18;;
20557;SDS011;10437;48.156;11.530;2023-08-17T05:33:41;8.63;;;6.28;;
20557;SDS011;10437;48.156;11.530;2023-08-17T05:36:08;12.27;;;6.53;;
20557;SDS011;10437;48.156;11.530;2023-08-17T05:38:34;9.63;;;6.30;;
20557;SDS011;10437;48.156;11.530;2023-08-17T05:41:03;11.20;;;7.30;;
20557;SDS011;10437;48.156;11.530;2023-08-17T05:43:30;10.35;;;6.75;;
20557;SDS011;10437;48.156;11.530;2023-08-17T05:45:57;10.25;;;6.40;;
20557;SDS011;10437;48.156;11.530;2023-08-17T05:48:25;10.07;;;6.40;;
20557;SDS011;10437;48.156;11.530;2023-08-17T05:50:52;11.98;;;6.82;;
20557;SDS011;10437;48.156;11.530;2023-08-17T05:53:19;10.35;;;6.95;;
20557;SDS011;10437;48.156;11.530;2023-08-17T05:55:46;12.05;;;6.75;;
20557;SDS011;10437;48.156;11.530;2023-08-17T05:58:14;10.20;;;6.88;;
20557;SDS011;10437;48.156;11.530;2023-08-17T06:00:41;13.65;;;6.88;;
20557;SDS011;10437;48.156;11.530;2023-08-17T06:03:08;10.45;;;7.47;;
20557;SDS011;10437;48.156;11.530;2023-08-17T06:05:35;13.10;;;7.10;;
20557;SDS011;10437;48.156;11.530;2023-08-17T06:08:02;13.18;;;6.82;;
20557;SDS011;10437;48.156;11.530;2023-08-17T06:10:29;9.27;;;6.93;;
20557;SDS011;10437;48.156;11.530;2023-08-17T06:12:56;12.00;;;6.50;;
20557;SDS011;10437;48.156;11.530;2023-08-17T06:15:25;10.30;;;7.00;;
20557;SDS011;10437;48.156;11.530;2023-08-17T06:17:51;11.45;;;6.22;;
20557;SDS011;10437;48.156;11.530;2023-08-17T06:20:18;9.55;;;6.65;;
20557;SDS011;10437;48.156;11.530;2023-08-17T06:22:46;8.20;;;6.38;;
20557;SDS011;10437;48.156;11.530;2023-08-17T06:25:13;13.07;;;6.75;;
20557;SDS011;10437;48.156;11.530;2023-08-17T06:27:41;9.02;;;6.18;;
20557;SDS011;10437;48.156;11.530;2023-08-17T06:30:09;8.35;;;6.13;;
20557;SDS011;10437;48.156;11.530;2023-08-17T06:32:38;8.13;;;5.68;;
20557;SDS011;10437;48.156;11.530;2023-08-17T06:35:05;10.27;;;6.32;;
20557;SDS011;10437;48.156;11.530;2023-08-17T06:37:33;10.38;;;6.35;;
20557;SDS011;10437;48.156;11.530;2023-08-17T06:40:00;13.45;;;6.30;;
20557;SDS011;10437;48.156;11.530;2023-08-17T06:42:27;8.82;;;6.13;;
20557;SDS011;10437;48.156;11.530;2023-08-17T06:44:54;9.10;;;5.93;;
20557;SDS011;10437;48.156;11.530;2023-08-17T06:47:22;13.07;;;6.53;;
20557;SDS011;10437;48.156;11.530;2023-08-17T06:49:50;13.38;;;6.20;;
20557;SDS011;10437;48.156;11.530;2023-08-17T06:52:17;8.48;;;6.05;;
20557;SDS011;10437;48.156;11.530;2023-08-17T06:54:44;7.85;;;5.90;;
20557;SDS011;10437;48.156;11.530;2023-08-17T06:57:11;10.30;;;6.13;;
20557;SDS011;10437;48.156;11.530;2023-08-17T06:59:38;10.13;;;5.90;;
20557;SDS011;10437;48.156;11.530;2023-08-17T07:02:05;8.48;;;6.15;;
20557;SDS011;10437;48.156;11.530;2023-08-17T07:04:32;11.18;;;6.55;;
20557;SDS011;10437;48.156;11.530;2023-08-17T07:07:00;8.90;;;5.97;;
20557;SDS011;10437;48.156;11.530;2023-08-17T07:09:27;8.75;;;6.35;;
20557;SDS011;10437;48.156;11.530;2023-08-17T07:11:54;6.75;;;5.78;;
20557;SDS011;10437;48.156;11.530;2023-08-17T07:14:21;9.57;;;5.85;;
20557;SDS011;10437;48.156;11.530;2023-08-17T07:16:48;9.02;;;6.35;;
20557;SDS011;10437;48.156;11.530;2023-08-17T07:19:15;10.65;;;6.25;;
20557;SDS011;10437;48.156;11.530;2023-08-17T07:21:42;9.68;;;6.25;;
20557;SDS011;10437;48.156;11.530;2023-08-17T07:24:15;21.52;;;7.57;;
20557;SDS011;10437;48.156;11.530;2023-08-17T07:26:42;10.77;;;6.60;;
20557;SDS011;10437;48.156;11.530;2023-08-17T07:29:09;10.45;;;5.53;;
20557;SDS011;10437;48.156;11.530;2023-08-17T07:31:37;9.65;;;5.68;;
20557;SDS011;10437;48.156;11.530;2023-08-17T07:34:04;9.68;;;5.47;;
20557;SDS011;10437;48.156;11.530;2023-08-17T07:36:31;8.27;;;5.60;;
20557;SDS011;10437;48.156;11.530;2023-08-17T07:38:58;8.63;;;5.18;;
20557;SDS011;10437;48.156;11.530;2023-08-17T07:41:27;8.93;;;5.85;;
20557;SDS011;10437;48.156;11.530;2023-08-17T07:43:53;6.38;;;5.10;;
20557;SDS011;10437;48.156;11.530;2023-08-17T07:46:20;10.45;;;5.50;;
20557;SDS011;10437;48.156;11.530;2023-08-17T07:48:47;6.82;;;6.00;;
20557;SDS011;10437;48.156;11.530;2023-08-17T07:51:14;7.25;;;5.80;;
20557;SDS011;10437;48.156;11.530;2023-08-17T07:53:41;7.53;;;5.65;;
20557;SDS011;10437;48.156;11.530;2023-08-17T07:56:08;7.38;;;5.47;;
20557;SDS011;10437;48.156;11.530;2023-08-17T07:58:37;7.38;;;5.30;;
20557;SDS011;10437;48.156;11.530;2023-08-17T08:01:04;8.25;;;5.15;;
20557;SDS011;10437;48.156;11.530;2023-08-17T08:03:31;6.88;;;5.38;;
20557;SDS011;10437;48.156;11.530;2023-08-17T08:05:58;9.70;;;5.60;;
20557;SDS011;10437;48.156;11.530;2023-08-17T08:08:25;6.60;;;5.22;;
20557;SDS011;10437;48.156;11.530;2023-08-17T08:10:52;8.07;;;5.05;;
20557;SDS011;10437;48.156;11.530;2023-08-17T08:13:20;6.70;;;4.70;;
20557;SDS011;10437;48.156;11.530;2023-08-17T08:15:48;8.07;;;5.22;;
20557;SDS011;10437;48.156;11.530;2023-08-17T08:18:15;6.78;;;5.47;;
20557;SDS011;10437;48.156;11.530;2023-08-17T08:20:42;7.30;;;5.22;;
20557;SDS011;10437;48.156;11.530;2023-08-17T08:23:09;7.70;;;5.15;;
20557;SDS011;10437;48.156;11.530;2023-08-17T08:25:36;6.68;;;5.47;;
20557;SDS011;10437;48.156;11.530;2023-08-17T08:28:03;7.50;;;5.95;;
20557;SDS011;10437;48.156;11.530;2023-08-17T08:30:30;7.32;;;5.50;;
20557;SDS011;10437;48.156;11.530;2023-08-17T08:32:59;7.90;;;5.63;;
20557;SDS011;10437;48.156;11.530;2023-08-17T08:35:27;6.10;;;4.47;;
20557;SDS011;10437;48.156;11.530;2023-08-17T08:37:55;7.28;;;5.20;;
20557;SDS011;10437;48.156;11.530;2023-08-17T08:40:26;9.43;;;5.25;;
20557;SDS011;10437;48.156;11.530;2023-08-17T08:42:54;6.70;;;5.20;;
20557;SDS011;10437;48.156;11.530;2023-08-17T08:45:22;7.20;;;4.75;;
20557;SDS011;10437;48.156;11.530;2023-08-17T08:47:49;8.32;;;5.10;;
20557;SDS011;10437;48.156;11.530;2023-08-17T08:50:20;6.97;;;5.35;;
20557;SDS011;10437;48.156;11.530;2023-08-17T08:52:49;10.88;;;5.53;;
20557;SDS011;10437;48.156;11.530;2023-08-17T08:55:20;6.35;;;4.90;;
20557;SDS011;10437;48.156;11.530;2023-08-17T08:57:49;9.00;;;5.28;;
20557;SDS011;10437;48.156;11.530;2023-08-17T09:00:17;6.28;;;5.68;;
20557;SDS011;10437;48.156;11.530;2023-08-17T09:02:44;7.97;;;5.50;;
20557;SDS011;10437;48.156;11.530;2023-08-17T09:05:11;8.50;;;5.20;;
20557;SDS011;10437;48.156;11.530;2023-08-17T09:07:41;6.72;;;5.30;;
20557;SDS011;10437;48.156;11.530;2023-08-17T09:10:09;7.35;;;5.35;;
20557;SDS011;10437;48.156;11.530;2023-08-17T09:12:36;7.78;;;5.18;;
20557;SDS011;10437;48.156;11.530;2023-08-17T09:15:03;7.25;;;5.32;;
20557;SDS011;10437;48.156;11.530;2023-08-17T09:17:31;7.53;;;5.28;;
20557;SDS011;10437;48.156;11.530;2023-08-17T09:19:59;5.70;;;4.75;;
20557;SDS011;10437;48.156;11.530;2023-08-17T09:22:37;5.90;;;5.03;;
20557;SDS011;10437;48.156;11.530;2023-08-17T09:25:07;7.88;;;5.00;;
20557;SDS011;10437;48.156;11.530;2023-08-17T09:27:34;7.25;;;5.40;;
20557;SDS011;10437;48.156;11.530;2023-08-17T09:30:03;5.95;;;5.00;;
20557;SDS011;10437;48.156;11.530;2023-08-17T09:32:31;7.32;;;5.50;;
20557;SDS011;10437;48.156;11.530;2023-08-17T09:35:00;5.85;;;5.25;;
20557;SDS011;10437;48.156;11.530;2023-08-17T09:37:27;5.90;;;5.20;;
20557;SDS011;10437;48.156;11.530;2023-08-17T09:39:54;8.25;;;5.10;;
20557;SDS011;10437;48.156;11.530;2023-08-17T09:42:23;7.55;;;5.30;;
20557;SDS011;10437;48.156;11.530;2023-08-17T09:44:50;8.05;;;5.60;;
20557;SDS011;10437;48.156;11.530;2023-08-17T09:47:17;6.20;;;4.72;;
20557;SDS011;10437;48.156;11.530;2023-08-17T09:49:47;7.55;;;5.47;;
20557;SDS011;10437;48.156;11.530;2023-08-17T09:52:14;7.30;;;5.15;;
20557;SDS011;10437;48.156;11.530;2023-08-17T09:54:41;6.85;;;4.85;;
20557;SDS011;10437;48.156;11.530;2023-08-17T09:57:09;7.30;;;5.30;;
20557;SDS011;10437;48.156;11.530;2023-08-17T09:59:37;7.18;;;5.00;;
20557;SDS011;10437;48.156;11.530;2023-08-17T10:02:04;8.63;;;4.80;;
20557;SDS011;10437;48.156;11.530;2023-08-17T10:04:42;8.73;;;5.43;;
20557;SDS011;10437;48.156;11.530;2023-08-17T10:07:13;5.22;;;4.70;;
20557;SDS011;10437;48.156;11.530;2023-08-17T10:09:42;5.68;;;5.07;;
20557;SDS011;10437;48.156;11.530;2023-08-17T10:12:12;7.28;;;4.85;;
20557;SDS011;10437;48.156;11.530;2023-08-17T10:14:45;7.05;;;4.65;;
20557;SDS011;10437;48.156;11.530;2023-08-17T10:17:18;8.55;;;4.53;;
20557;SDS011;10437;48.156;11.530;2023-08-17T10:19:53;6.15;;;5.38;;
20557;SDS011;10437;48.156;11.530;2023-08-17T10:22:23;8.35;;;5.60;;
20557;SDS011;10437;48.156;11.530;2023-08-17T10:24:56;7.25;;;5.45;;
20557;SDS011;10437;48.156;11.530;2023-08-17T10:27:24;8.15;;;6.03;;
20557;SDS011;10437;48.156;11.530;2023-08-17T10:29:53;9.55;;;5.75;;
20557;SDS011;10437;48.156;11.530;2023-08-17T10:32:21;6.97;;;5.72;;
20557;SDS011;10437;48.156;11.530;2023-08-17T10:34:49;7.57;;;6.00;;
20557;SDS011;10437;48.156;11.530;2023-08-17T10:37:18;7.00;;;5.97;;
20557;SDS011;10437;48.156;11.530;2023-08-17T10:39:45;7.38;;;6.00;;
20557;SDS011;10437;48.156;11.530;2023-08-17T10:42:13;9.45;;;5.47;;
20557;SDS011;10437;48.156;11.530;2023-08-17T10:44:43;6.80;;;5.63;;
20557;SDS011;10437;48.156;11.530;2023-08-17T10:49:58;6.65;;;5.40;;
20557;SDS011;10437;48.156;11.530;2023-08-17T10:52:28;7.05;;;5.70;;
20557;SDS011;10437;48.156;11.530;2023-08-17T10:54:58;8.63;;;5.70;;
20557;SDS011;10437;48.156;11.530;2023-08-17T10:57:32;6.97;;;5.68;;
20557;SDS011;10437;48.156;11.530;2023-08-17T11:02:59;7.38;;;6.03;;
20557;SDS011;10437;48.156;11.530;2023-08-17T11:05:36;7.05;;;5.45;;
20557;SDS011;10437;48.156;11.530;2023-08-17T11:08:04;8.98;;;5.85;;
20557;SDS011;10437;48.156;11.530;2023-08-17T11:10:31;7.25;;;5.38;;
20557;SDS011;10437;48.156;11.530;2023-08-17T11:12:59;10.82;;;6.30;;
20557;SDS011;10437;48.156;11.530;2023-08-17T11:15:35;5.95;;;5.20;;
20557;SDS011;10437;48.156;11.530;2023-08-17T11:18:09;9.32;;;5.90;;
20557;SDS011;10437;48.156;11.530;2023-08-17T11:20:37;9.40;;;5.22;;
20557;SDS011;10437;48.156;11.530;2023-08-17T11:23:04;6.65;;;5.07;;
20557;SDS011;10437;48.156;11.530;2023-08-17T11:25:32;7.75;;;5.38;;
20557;SDS011;10437;48.156;11.530;2023-08-17T11:28:00;6.80;;;5.35;;
20557;SDS011;10437;48.156;11.530;2023-08-17T11:30:28;8.40;;;5.15;;
20557;SDS011;10437;48.156;11.530;2023-08-17T11:32:55;7.95;;;5.15;;
20557;SDS011;10437;48.156;11.530;2023-08-17T11:35:24;5.75;;;5.10;;
20557;SDS011;10437;48.156;11.530;2023-08-17T11:37:51;5.97;;;5.25;;
20557;SDS011;10437;48.156;11.530;2023-08-17T11:40:18;8.65;;;5.68;;
20557;SDS011;10437;48.156;11.530;2023-08-17T11:42:46;7.53;;;5.35;;
20557;SDS011;10437;48.156;11.530;2023-08-17T11:45:14;8.77;;;5.38;;
20557;SDS011;10437;48.156;11.530;2023-08-17T11:47:41;6.95;;;5.50;;
20557;SDS011;10437;48.156;11.530;2023-08-17T11:50:09;6.55;;;5.50;;
20557;SDS011;10437;48.156;11.530;2023-08-17T11:52:38;8.48;;;5.50;;
20557;SDS011;10437;48.156;11.530;2023-08-17T11:55:05;9.32;;;5.53;;
20557;SDS011;10437;48.156;11.530;2023-08-17T11:57:35;8.43;;;4.78;;
20557;SDS011;10437;48.156;11.530;2023-08-17T12:00:02;6.22;;;4.85;;
20557;SDS011;10437;48.156;11.530;2023-08-17T12:02:32;7.70;;;5.18;;
20557;SDS011;10437;48.156;11.530;2023-08-17T12:05:02;6.22;;;4.93;;
20557;SDS011;10437;48.156;11.530;2023-08-17T12:07:31;5.55;;;4.95;;
20557;SDS011;10437;48.156;11.530;2023-08-17T12:09:59;9.63;;;4.80;;
20557;SDS011;10437;48.156;11.530;2023-08-17T12:12:26;9.75;;;5.35;;
20557;SDS011;10437;48.156;11.530;2023-08-17T12:14:53;8.07;;;5.18;;
20557;SDS011;10437;48.156;11.530;2023-08-17T12:17:21;7.32;;;5.07;;
20557;SDS011;10437;48.156;11.530;2023-08-17T12:19:48;5.43;;;4.60;;
20557;SDS011;10437;48.156;11.530;2023-08-17T12:22:16;6.65;;;5.10;;
20557;SDS011;10437;48.156;11.530;2023-08-17T12:24:43;6.40;;;4.80;;
20557;SDS011;10437;48.156;11.530;2023-08-17T12:27:12;6.15;;;4.90;;
20557;SDS011;10437;48.156;11.530;2023-08-17T12:29:47;8.27;;;5.22;;
20557;SDS011;10437;48.156;11.530;2023-08-17T12:32:15;7.60;;;5.20;;
20557;SDS011;10437;48.156;11.530;2023-08-17T12:34:43;5.72;;;4.65;;
20557;SDS011;10437;48.156;11.530;2023-08-17T12:37:10;7.88;;;4.50;;
20557;SDS011;10437;48.156;11.530;2023-08-17T12:39:37;6.40;;;4.63;;
20557;SDS011;10437;48.156;11.530;2023-08-17T12:42:04;9.07;;;5.15;;
20557;SDS011;10437;48.156;11.530;2023-08-17T12:44:33;7.10;;;5.25;;
20557;SDS011;10437;48.156;11.530;2023-08-17T12:47:00;6.72;;;5.13;;
20557;SDS011;10437;48.156;11.530;2023-08-17T12:49:27;5.63;;;4.93;;
20557;SDS011;10437;48.156;11.530;2023-08-17T12:51:54;7.30;;;5.22;;
20557;SDS011;10437;48.156;11.530;2023-08-17T12:54:21;6.53;;;4.75;;
20557;SDS011;10437;48.156;11.530;2023-08-17T12:56:48;7.55;;;4.80;;
20557;SDS011;10437;48.156;11.530;2023-08-17T12:59:15;7.13;;;4.82;;
20557;SDS011;10437;48.156;11.530;2023-08-17T13:01:43;6.20;;;4.85;;
20557;SDS011;10437;48.156;11.530;2023-08-17T13:04:13;5.18;;;4.55;;
20557;SDS011;10437;48.156;11.530;2023-08-17T13:06:40;7.22;;;4.78;;
20557;SDS011;10437;48.156;11.530;2023-08-17T13:09:07;6.63;;;5.00;;
20557;SDS011;10437;48.156;11.530;2023-08-17T13:11:35;5.80;;;4.63;;
20557;SDS011;10437;48.156;11.530;2023-08-17T13:14:02;4.97;;;4.10;;
20557;SDS011;10437;48.156;11.530;2023-08-17T13:16:29;6.63;;;4.55;;
20557;SDS011;10437;48.156;11.530;2023-08-17T13:18:58;6.63;;;4.43;;
20557;SDS011;10437;48.156;11.530;2023-08-17T13:21:25;5.38;;;4.50;;
20557;SDS011;10437;48.156;11.530;2023-08-17T13:23:52;5.10;;;4.18;;
20557;SDS011;10437;48.156;11.530;2023-08-17T13:26:19;4.18;;;3.78;;
20557;SDS011;10437;48.156;11.530;2023-08-17T13:28:46;5.03;;;4.40;;
20557;SDS011;10437;48.156;11.530;2023-08-17T13:31:13;4.55;;;3.92;;
20557;SDS011;10437;48.156;11.530;2023-08-17T13:33:40;5.05;;;4.18;;
20557;SDS011;10437;48.156;11.530;2023-08-17T13:36:09;4.82;;;4.00;;
20557;SDS011;10437;48.156;11.530;2023-08-17T13:38:35;5.38;;;4.10;;
20557;SDS011;10437;48.156;11.530;2023-08-17T13:41:03;4.38;;;3.75;;
20557;SDS011;10437;48.156;11.530;2023-08-17T13:43:31;3.90;;;3.50;;
20557;SDS011;10437;48.156;11.530;2023-08-17T13:45:58;4.38;;;3.35;;
20557;SDS011;10437;48.156;11.530;2023-08-17T13:48:25;3.40;;;3.10;;
20557;SDS011;10437;48.156;11.530;2023-08-17T13:50:52;5.00;;;3.90;;
20557;SDS011;10437;48.156;11.530;2023-08-17T13:53:21;7.60;;;3.80;;
20557;SDS011;10437;48.156;11.530;2023-08-17T13:55:47;4.55;;;4.05;;
20557;SDS011;10437;48.156;11.530;2023-08-17T13:58:15;6.13;;;4.28;;
20557;SDS011;10437;48.156;11.530;2023-08-17T14:00:42;6.97;;;4.43;;
20557;SDS011;10437;48.156;11.530;2023-08-17T14:03:09;9.35;;;4.40;;
20557;SDS011;10437;48.156;11.530;2023-08-17T14:05:36;5.80;;;4.28;;
20557;SDS011;10437;48.156;11.530;2023-08-17T14:08:05;5.97;;;4.50;;
20557;SDS011;10437;48.156;11.530;2023-08-17T14:10:34;5.82;;;4.20;;
20557;SDS011;10437;48.156;11.530;2023-08-17T14:13:01;5.90;;;4.57;;
20557;SDS011;10437;48.156;11.530;2023-08-17T14:15:29;5.10;;;4.28;;
20557;SDS011;10437;48.156;11.530;2023-08-17T14:17:56;6.57;;;4.50;;
20557;SDS011;10437;48.156;11.530;2023-08-17T14:20:23;5.82;;;4.90;;
20557;SDS011;10437;48.156;11.530;2023-08-17T14:22:50;5.45;;;4.55;;
20557;SDS011;10437;48.156;11.530;2023-08-17T14:25:18;7.13;;;4.75;;
20557;SDS011;10437;48.156;11.530;2023-08-17T14:27:46;5.88;;;4.55;;
20557;SDS011;10437;48.156;11.530;2023-08-17T14:30:13;5.70;;;4.78;;
20557;SDS011;10437;48.156;11.530;2023-08-17T14:32:40;6.70;;;5.22;;
20557;SDS011;10437;48.156;11.530;2023-08-17T14:35:07;8.95;;;5.65;;
20557;SDS011;10437;48.156;11.530;2023-08-17T14:37:34;6.40;;;5.80;;
20557;SDS011;10437;48.156;11.530;2023-08-17T14:40:01;6.82;;;5.60;;